Massachusetts — WDH5399 — position and weather

sailwx.info

Track history (hours):
 
Tides and Currents Weather Stations Pressure Air Temp Water Temp Dewpoint Dewpoint Depression Visibility Wind Speed Wind Dir Waves Ship Positions

Massachusetts

Owner: Massachusetts Bay Lines 60 rowes wharf boston, ma 02110, boston, MA. More information available from US FCC via Universal Licensing System and Coast Guard Vessel Documentation Center.

Last reported at 2017-Nov-17 19:24 UTC. Time now 2017-Nov-17 21:22 UTC.
Position N 42°21' W 071°03'.

Length 30 m.

Type: Passenger vessel. MMSI: 367627580.

Date/timePositionNaut miles runAvg speedWind from/ knotsBaromVisibWave heightAir tempDewpointWater temp
2017-Nov-17 19:24N 42°21' W 071°03'0 0.0
2017-Nov-17 19:00N 42°21' W 071°03'0 0.0
2017-Nov-17 18:30N 42°21' W 071°03'0 0.0
2017-Nov-17 18:00N 42°21' W 071°03'0 0.0
2017-Nov-17 17:30N 42°21' W 071°03'0 0.0
2017-Nov-17 16:56N 42°21' W 071°03'0 0.0
2017-Nov-17 14:41N 42°21' W 071°03'1 2.6
2017-Nov-17 14:26N 42°22' W 071°02'1 1.4
2017-Nov-17 13:57N 42°21' W 071°03'715.3
2017-Nov-17 13:28N 42°16' W 070°56'1 2.4
2017-Nov-17 12:59N 42°17' W 070°57'613.1
2017-Nov-17 12:31N 42°21' W 071°03'813.8
2017-Nov-17 11:55N 42°16' W 070°55'0 0.5
2017-Nov-17 11:26N 42°16' W 070°55'2 0.2
2017-Nov-16 23:37N 42°15' W 070°58'2 5.8
2017-Nov-16 23:13N 42°15' W 070°55'717.1
2017-Nov-16 22:50N 42°21' W 071°01'2 5.4
2017-Nov-16 22:30N 42°21' W 071°03'811.6
2017-Nov-16 21:48N 42°15' W 070°55'1 4.1
2017-Nov-16 21:26N 42°17' W 070°56'715.9
2017-Nov-16 21:00N 42°21' W 071°03'0 0.0
2017-Nov-16 20:30N 42°21' W 071°03'0 0.0
2017-Nov-16 20:00N 42°21' W 071°03'0 0.0
2017-Nov-16 19:30N 42°21' W 071°03'0 0.0
2017-Nov-16 19:00N 42°21' W 071°03'0 0.0
2017-Nov-16 18:31N 42°21' W 071°03'0 0.0
2017-Nov-16 18:00N 42°21' W 071°03'0 0.0
2017-Nov-16 17:30N 42°21' W 071°03'0 0.0
2017-Nov-16 16:53N 42°21' W 071°03'0 0.0
2017-Nov-16 14:00N 42°21' W 071°03'8 9.5
2017-Nov-16 13:09N 42°16' W 070°55'516.8
2017-Nov-16 12:53N 42°19' W 070°59'4 8.9
2017-Nov-16 12:29N 42°21' W 071°03'8 8.0
2017-Nov-16 11:28N 42°16' W 070°55'1 0.1
2017-Nov-15 23:08N 42°17' W 070°56'318.4
2017-Nov-15 22:59N 42°18' W 070°59'4 8.9
2017-Nov-15 22:30N 42°21' W 071°03'611.3
2017-Nov-15 21:59N 42°17' W 070°57'2 2.6
2017-Nov-15 21:18N 42°19' W 070°59'414.2
2017-Nov-15 21:00N 42°21' W 071°03'0 0.0
2017-Nov-15 20:30N 42°21' W 071°03'0 0.0
2017-Nov-15 20:00N 42°21' W 071°03'0 0.0
2017-Nov-15 19:30N 42°21' W 071°03'0 0.0
2017-Nov-15 19:00N 42°21' W 071°03'0 0.0
2017-Nov-15 18:30N 42°21' W 071°03'0 0.0
2017-Nov-15 18:00N 42°21' W 071°03'0 0.0
2017-Nov-15 17:30N 42°21' W 071°03'0 0.0
2017-Nov-15 17:00N 42°21' W 071°03'0 0.0
2017-Nov-15 16:30N 42°21' W 071°03'1 1.0
2017-Nov-15 15:48N 42°22' W 071°02'1 0.6
2017-Nov-15 14:54N 42°21' W 071°03'1 1.3
2017-Nov-15 14:30N 42°22' W 071°02'1 1.2
2017-Nov-15 14:00N 42°21' W 071°03'8 9.1
2017-Nov-15 13:07N 42°16' W 070°55'315.3
2017-Nov-15 12:55N 42°18' W 070°58'510.9
2017-Nov-15 12:29N 42°21' W 071°03'814.0
2017-Nov-15 11:53N 42°16' W 070°55'0 0.7
2017-Nov-15 11:29N 42°16' W 070°55'2 0.2
2017-Nov-14 23:36N 42°15' W 070°58'2 5.5
2017-Nov-14 23:11N 42°16' W 070°55'418.0
2017-Nov-14 22:58N 42°19' W 070°59'4 8.8
2017-Nov-14 22:30N 42°21' W 071°03'611.9
2017-Nov-14 22:00N 42°17' W 070°57'1 1.0
2017-Nov-14 21:21N 42°18' W 070°58'513.8
2017-Nov-14 20:58N 42°21' W 071°03'0 0.0
2017-Nov-14 20:30N 42°21' W 071°03'0 0.0
2017-Nov-14 20:00N 42°21' W 071°03'0 0.0
2017-Nov-14 19:27N 42°21' W 071°03'0 0.0
2017-Nov-14 19:01N 42°21' W 071°03'0 0.0
2017-Nov-14 18:29N 42°21' W 071°03'0 0.0
2017-Nov-14 18:00N 42°21' W 071°03'0 0.0
2017-Nov-14 17:30N 42°21' W 071°03'0 0.0
2017-Nov-14 17:00N 42°21' W 071°03'0 0.0
2017-Nov-14 16:30N 42°21' W 071°03'0 0.0
2017-Nov-14 16:01N 42°21' W 071°03'0 0.0
2017-Nov-14 15:30N 42°21' W 071°03'0 0.0
2017-Nov-14 15:00N 42°21' W 071°03'0 0.0
2017-Nov-14 14:30N 42°21' W 071°03'0 0.0
2017-Nov-14 14:00N 42°21' W 071°03'8 8.8
2017-Nov-14 13:06N 42°16' W 070°55'315.2
2017-Nov-14 12:55N 42°18' W 070°58'511.3
2017-Nov-14 12:28N 42°21' W 071°03'8 8.2
2017-Nov-14 11:30N 42°16' W 070°55'2 0.2
2017-Nov-13 23:44N 42°15' W 070°58'2 4.9
2017-Nov-13 23:15N 42°16' W 070°55'616.2
2017-Nov-13 22:52N 42°20' W 071°01'2 5.0
2017-Nov-13 22:29N 42°21' W 071°03'8 8.5
2017-Nov-13 21:32N 42°16' W 070°55'  
2017-Nov-10 22:13N 42°21' W 071°01'716.6
2017-Nov-10 21:48N 42°15' W 070°55'3 6.7
2017-Nov-10 21:22N 42°18' W 070°58'5 8.8
2017-Nov-10 20:45N 42°21' W 071°03'0 0.0
2017-Nov-10 20:28N 42°21' W 071°03'0 0.0
2017-Nov-10 20:00N 42°21' W 071°03'0 0.0
2017-Nov-10 19:30N 42°21' W 071°03'0 0.0
2017-Nov-10 19:00N 42°21' W 071°03'0 0.0
2017-Nov-10 18:30N 42°21' W 071°03'0 0.0
2017-Nov-10 18:00N 42°21' W 071°03'0 0.0
2017-Nov-10 17:30N 42°21' W 071°03'0 0.0
2017-Nov-10 14:48N 42°21' W 071°03'0 0.0
2017-Nov-10 13:56N 42°21' W 071°03'810.3
2017-Nov-10 13:09N 42°16' W 070°55'211.7
2017-Nov-10 13:00N 42°17' W 070°57'612.7
2017-Nov-10 12:30N 42°21' W 071°03'714.1
2017-Nov-10 11:58N 42°16' W 070°56'1 0.0
2017-Nov-09 23:28N 42°16' W 070°55'5 9.2
2017-Nov-09 22:53N 42°20' W 070°60'3 7.0
2017-Nov-09 22:30N 42°21' W 071°03'611.7
2017-Nov-09 22:00N 42°17' W 070°57'1 1.2
2017-Nov-09 21:26N 42°17' W 070°56'714.9
2017-Nov-09 20:59N 42°21' W 071°03'0 0.0
2017-Nov-09 20:30N 42°21' W 071°03'0 0.0
2017-Nov-09 20:00N 42°21' W 071°03'0 0.0
2017-Nov-09 19:30N 42°21' W 071°03'0 0.0
2017-Nov-09 19:00N 42°21' W 071°03'0 0.0
2017-Nov-09 18:30N 42°21' W 071°03'0 0.0
2017-Nov-09 17:59N 42°21' W 071°03'0 0.0
2017-Nov-09 17:29N 42°21' W 071°03'0 0.0
2017-Nov-09 17:00N 42°21' W 071°03'0 0.0
2017-Nov-09 16:30N 42°21' W 071°03'0 0.0
2017-Nov-09 16:00N 42°21' W 071°03'1 1.4
2017-Nov-09 15:30N 42°22' W 071°02'0 0.7
2017-Nov-09 14:59N 42°22' W 071°03'1 0.6
2017-Nov-09 13:59N 42°21' W 071°03'714.9
2017-Nov-09 13:30N 42°16' W 070°56'1 2.8
2017-Nov-09 12:58N 42°17' W 070°57'611.2
2017-Nov-09 12:26N 42°21' W 071°03'715.7
2017-Nov-09 12:00N 42°17' W 070°56'1 2.5
2017-Nov-09 11:29N 42°16' W 070°55'0 0.0
2017-Nov-08 23:32N 42°16' W 070°55'0 0.3
2017-Nov-08 23:16N 42°16' W 070°55'414.2
2017-Nov-08 23:01N 42°18' W 070°59'4 8.5
2017-Nov-08 22:30N 42°21' W 071°03'610.9
2017-Nov-08 21:58N 42°17' W 070°57'1 2.4
2017-Nov-08 21:28N 42°17' W 070°56'715.2
2017-Nov-08 21:00N 42°21' W 071°03'0 0.0
2017-Nov-08 20:30N 42°21' W 071°03'0 0.0
2017-Nov-08 19:46N 42°21' W 071°03'0 0.2
2017-Nov-08 19:21N 42°21' W 071°03'2 2.0
2017-Nov-08 18:24N 42°23' W 071°03'0 0.0
2017-Nov-08 17:59N 42°23' W 071°03'0 0.0
2017-Nov-08 17:15N 42°23' W 071°03'0 0.0
2017-Nov-08 17:01N 42°23' W 071°03'0 0.0
2017-Nov-08 16:30N 42°23' W 071°03'0 0.0
2017-Nov-08 16:00N 42°23' W 071°03'0 0.0
2017-Nov-08 15:27N 42°23' W 071°03'2 1.3
2017-Nov-08 14:03N 42°21' W 071°03'0 4.0
2017-Nov-08 13:59N 42°21' W 071°03'5 4.9
2017-Nov-08 12:57N 42°18' W 070°58'510.8
2017-Nov-08 12:28N 42°21' W 071°03'814.5
2017-Nov-08 11:56N 42°16' W 070°55'1 0.0
2017-Nov-07 23:26N 42°15' W 070°55'4 8.4
2017-Nov-07 23:00N 42°18' W 070°58'5 7.9
2017-Nov-07 22:24N 42°21' W 071°03'613.8
2017-Nov-07 21:58N 42°17' W 070°57'1 2.0
2017-Nov-07 21:21N 42°18' W 070°58'513.5
2017-Nov-07 21:00N 42°21' W 071°03'0 0.0
2017-Nov-07 20:30N 42°21' W 071°03'0 0.0
2017-Nov-07 20:00N 42°21' W 071°03'0 0.0
2017-Nov-07 19:30N 42°21' W 071°03'  
Track history (hours):
 
Tides and Currents Weather Stations Pressure Air Temp Water Temp Dewpoint Dewpoint Depression Visibility Wind Speed Wind Dir Waves Ship Positions

Massachusetts

Owner: Massachusetts Bay Lines 60 rowes wharf boston, ma 02110, boston, MA. More information available from US FCC via Universal Licensing System and Coast Guard Vessel Documentation Center.

Last reported at 2017-Nov-17 19:24 UTC. Time now 2017-Nov-17 21:22 UTC.
Position N 42°21' W 071°03'.

Length 30 m.

Type: Passenger vessel. MMSI: 367627580.

Date/timePositionNaut miles runAvg speedWind from/ knotsBaromVisibWave heightAir tempDewpointWater temp
2017-Nov-17 19:24N 42°21' W 071°03'0 0.0
2017-Nov-17 19:00N 42°21' W 071°03'0 0.0
2017-Nov-17 18:30N 42°21' W 071°03'0 0.0
2017-Nov-17 18:00N 42°21' W 071°03'0 0.0
2017-Nov-17 17:30N 42°21' W 071°03'0 0.0
2017-Nov-17 16:56N 42°21' W 071°03'0 0.0
2017-Nov-17 14:41N 42°21' W 071°03'1 2.6
2017-Nov-17 14:26N 42°22' W 071°02'1 1.4
2017-Nov-17 13:57N 42°21' W 071°03'715.3
2017-Nov-17 13:28N 42°16' W 070°56'1 2.4
2017-Nov-17 12:59N 42°17' W 070°57'613.1
2017-Nov-17 12:31N 42°21' W 071°03'813.8
2017-Nov-17 11:55N 42°16' W 070°55'0 0.5
2017-Nov-17 11:26N 42°16' W 070°55'2 0.2
2017-Nov-16 23:37N 42°15' W 070°58'2 5.8
2017-Nov-16 23:13N 42°15' W 070°55'717.1
2017-Nov-16 22:50N 42°21' W 071°01'2 5.4
2017-Nov-16 22:30N 42°21' W 071°03'811.6
2017-Nov-16 21:48N 42°15' W 070°55'1 4.1
2017-Nov-16 21:26N 42°17' W 070°56'715.9
2017-Nov-16 21:00N 42°21' W 071°03'0 0.0
2017-Nov-16 20:30N 42°21' W 071°03'0 0.0
2017-Nov-16 20:00N 42°21' W 071°03'0 0.0
2017-Nov-16 19:30N 42°21' W 071°03'0 0.0
2017-Nov-16 19:00N 42°21' W 071°03'0 0.0
2017-Nov-16 18:31N 42°21' W 071°03'0 0.0
2017-Nov-16 18:00N 42°21' W 071°03'0 0.0
2017-Nov-16 17:30N 42°21' W 071°03'0 0.0
2017-Nov-16 16:53N 42°21' W 071°03'0 0.0
2017-Nov-16 14:00N 42°21' W 071°03'8 9.5
2017-Nov-16 13:09N 42°16' W 070°55'516.8
2017-Nov-16 12:53N 42°19' W 070°59'4 8.9
2017-Nov-16 12:29N 42°21' W 071°03'8 8.0
2017-Nov-16 11:28N 42°16' W 070°55'1 0.1
2017-Nov-15 23:08N 42°17' W 070°56'318.4
2017-Nov-15 22:59N 42°18' W 070°59'4 8.9
2017-Nov-15 22:30N 42°21' W 071°03'611.3
2017-Nov-15 21:59N 42°17' W 070°57'2 2.6
2017-Nov-15 21:18N 42°19' W 070°59'414.2
2017-Nov-15 21:00N 42°21' W 071°03'0 0.0
2017-Nov-15 20:30N 42°21' W 071°03'0 0.0
2017-Nov-15 20:00N 42°21' W 071°03'0 0.0
2017-Nov-15 19:30N 42°21' W 071°03'0 0.0
2017-Nov-15 19:00N 42°21' W 071°03'0 0.0
2017-Nov-15 18:30N 42°21' W 071°03'0 0.0
2017-Nov-15 18:00N 42°21' W 071°03'0 0.0
2017-Nov-15 17:30N 42°21' W 071°03'0 0.0
2017-Nov-15 17:00N 42°21' W 071°03'0 0.0
2017-Nov-15 16:30N 42°21' W 071°03'1 1.0
2017-Nov-15 15:48N 42°22' W 071°02'1 0.6
2017-Nov-15 14:54N 42°21' W 071°03'1 1.3
2017-Nov-15 14:30N 42°22' W 071°02'1 1.2
2017-Nov-15 14:00N 42°21' W 071°03'8 9.1
2017-Nov-15 13:07N 42°16' W 070°55'315.3
2017-Nov-15 12:55N 42°18' W 070°58'510.9
2017-Nov-15 12:29N 42°21' W 071°03'814.0
2017-Nov-15 11:53N 42°16' W 070°55'0 0.7
2017-Nov-15 11:29N 42°16' W 070°55'2 0.2
2017-Nov-14 23:36N 42°15' W 070°58'2 5.5
2017-Nov-14 23:11N 42°16' W 070°55'418.0
2017-Nov-14 22:58N 42°19' W 070°59'4 8.8
2017-Nov-14 22:30N 42°21' W 071°03'611.9
2017-Nov-14 22:00N 42°17' W 070°57'1 1.0
2017-Nov-14 21:21N 42°18' W 070°58'513.8
2017-Nov-14 20:58N 42°21' W 071°03'0 0.0
2017-Nov-14 20:30N 42°21' W 071°03'0 0.0
2017-Nov-14 20:00N 42°21' W 071°03'0 0.0
2017-Nov-14 19:27N 42°21' W 071°03'0 0.0
2017-Nov-14 19:01N 42°21' W 071°03'0 0.0
2017-Nov-14 18:29N 42°21' W 071°03'0 0.0
2017-Nov-14 18:00N 42°21' W 071°03'0 0.0
2017-Nov-14 17:30N 42°21' W 071°03'0 0.0
2017-Nov-14 17:00N 42°21' W 071°03'0 0.0
2017-Nov-14 16:30N 42°21' W 071°03'0 0.0
2017-Nov-14 16:01N 42°21' W 071°03'0 0.0
2017-Nov-14 15:30N 42°21' W 071°03'0 0.0
2017-Nov-14 15:00N 42°21' W 071°03'0 0.0
2017-Nov-14 14:30N 42°21' W 071°03'0 0.0
2017-Nov-14 14:00N 42°21' W 071°03'8 8.8
2017-Nov-14 13:06N 42°16' W 070°55'315.2
2017-Nov-14 12:55N 42°18' W 070°58'511.3
2017-Nov-14 12:28N 42°21' W 071°03'8 8.2
2017-Nov-14 11:30N 42°16' W 070°55'2 0.2
2017-Nov-13 23:44N 42°15' W 070°58'2 4.9
2017-Nov-13 23:15N 42°16' W 070°55'616.2
2017-Nov-13 22:52N 42°20' W 071°01'2 5.0
2017-Nov-13 22:29N 42°21' W 071°03'8 8.5
2017-Nov-13 21:32N 42°16' W 070°55'  
2017-Nov-10 22:13N 42°21' W 071°01'716.6
2017-Nov-10 21:48N 42°15' W 070°55'3 6.7
2017-Nov-10 21:22N 42°18' W 070°58'5 8.8
2017-Nov-10 20:45N 42°21' W 071°03'0 0.0
2017-Nov-10 20:28N 42°21' W 071°03'0 0.0
2017-Nov-10 20:00N 42°21' W 071°03'0 0.0
2017-Nov-10 19:30N 42°21' W 071°03'0 0.0
2017-Nov-10 19:00N 42°21' W 071°03'0 0.0
2017-Nov-10 18:30N 42°21' W 071°03'0 0.0
2017-Nov-10 18:00N 42°21' W 071°03'0 0.0
2017-Nov-10 17:30N 42°21' W 071°03'0 0.0
2017-Nov-10 14:48N 42°21' W 071°03'0 0.0
2017-Nov-10 13:56N 42°21' W 071°03'810.3
2017-Nov-10 13:09N 42°16' W 070°55'211.7
2017-Nov-10 13:00N 42°17' W 070°57'612.7
2017-Nov-10 12:30N 42°21' W 071°03'714.1
2017-Nov-10 11:58N 42°16' W 070°56'1 0.0
2017-Nov-09 23:28N 42°16' W 070°55'5 9.2
2017-Nov-09 22:53N 42°20' W 070°60'3 7.0
2017-Nov-09 22:30N 42°21' W 071°03'611.7
2017-Nov-09 22:00N 42°17' W 070°57'1 1.2
2017-Nov-09 21:26N 42°17' W 070°56'714.9
2017-Nov-09 20:59N 42°21' W 071°03'0 0.0
2017-Nov-09 20:30N 42°21' W 071°03'0 0.0
2017-Nov-09 20:00N 42°21' W 071°03'0 0.0
2017-Nov-09 19:30N 42°21' W 071°03'0 0.0
2017-Nov-09 19:00N 42°21' W 071°03'0 0.0
2017-Nov-09 18:30N 42°21' W 071°03'0 0.0
2017-Nov-09 17:59N 42°21' W 071°03'0 0.0
2017-Nov-09 17:29N 42°21' W 071°03'0 0.0
2017-Nov-09 17:00N 42°21' W 071°03'0 0.0
2017-Nov-09 16:30N 42°21' W 071°03'0 0.0
2017-Nov-09 16:00N 42°21' W 071°03'1 1.4
2017-Nov-09 15:30N 42°22' W 071°02'0 0.7
2017-Nov-09 14:59N 42°22' W 071°03'1 0.6
2017-Nov-09 13:59N 42°21' W 071°03'714.9
2017-Nov-09 13:30N 42°16' W 070°56'1 2.8
2017-Nov-09 12:58N 42°17' W 070°57'611.2
2017-Nov-09 12:26N 42°21' W 071°03'715.7
2017-Nov-09 12:00N 42°17' W 070°56'1 2.5
2017-Nov-09 11:29N 42°16' W 070°55'0 0.0
2017-Nov-08 23:32N 42°16' W 070°55'0 0.3
2017-Nov-08 23:16N 42°16' W 070°55'414.2
2017-Nov-08 23:01N 42°18' W 070°59'4 8.5
2017-Nov-08 22:30N 42°21' W 071°03'610.9
2017-Nov-08 21:58N 42°17' W 070°57'1 2.4
2017-Nov-08 21:28N 42°17' W 070°56'715.2
2017-Nov-08 21:00N 42°21' W 071°03'0 0.0
2017-Nov-08 20:30N 42°21' W 071°03'0 0.0
2017-Nov-08 19:46N 42°21' W 071°03'0 0.2
2017-Nov-08 19:21N 42°21' W 071°03'2 2.0
2017-Nov-08 18:24N 42°23' W 071°03'0 0.0
2017-Nov-08 17:59N 42°23' W 071°03'0 0.0
2017-Nov-08 17:15N 42°23' W 071°03'0 0.0
2017-Nov-08 17:01N 42°23' W 071°03'0 0.0
2017-Nov-08 16:30N 42°23' W 071°03'0 0.0
2017-Nov-08 16:00N 42°23' W 071°03'0 0.0
2017-Nov-08 15:27N 42°23' W 071°03'2 1.3
2017-Nov-08 14:03N 42°21' W 071°03'0 4.0
2017-Nov-08 13:59N 42°21' W 071°03'5 4.9
2017-Nov-08 12:57N 42°18' W 070°58'510.8
2017-Nov-08 12:28N 42°21' W 071°03'814.5
2017-Nov-08 11:56N 42°16' W 070°55'1 0.0
2017-Nov-07 23:26N 42°15' W 070°55'4 8.4
2017-Nov-07 23:00N 42°18' W 070°58'5 7.9
2017-Nov-07 22:24N 42°21' W 071°03'613.8
2017-Nov-07 21:58N 42°17' W 070°57'1 2.0
2017-Nov-07 21:21N 42°18' W 070°58'513.5
2017-Nov-07 21:00N 42°21' W 071°03'0 0.0
2017-Nov-07 20:30N 42°21' W 071°03'0 0.0
2017-Nov-07 20:00N 42°21' W 071°03'0 0.0
2017-Nov-07 19:30N 42°21' W 071°03'  

Dump ship's entire track history